createdAt,value
2022-11-10T00:00:01.315Z,9.79
2022-11-10T00:03:03.589Z,9.82
2022-11-10T00:06:07.420Z,9.80
2022-11-10T00:09:10.064Z,9.81
2022-11-10T00:12:11.620Z,9.80
2022-11-10T00:15:31.971Z,9.82
2022-11-10T00:18:33.487Z,9.78
2022-11-10T00:21:37.298Z,9.80
2022-11-10T00:24:39.038Z,9.80
2022-11-10T00:27:41.023Z,9.78
2022-11-10T00:30:46.661Z,9.79
2022-11-10T00:33:48.418Z,9.77
2022-11-10T00:36:51.434Z,9.76
2022-11-10T00:39:53.190Z,9.75
2022-11-10T00:42:54.765Z,9.73
2022-11-10T00:45:56.446Z,9.71
2022-11-10T00:48:58.014Z,9.71
2022-11-10T00:52:01.162Z,9.69
2022-11-10T00:55:02.784Z,9.69
2022-11-10T00:58:04.640Z,9.69
2022-11-10T01:01:06.626Z,9.66
2022-11-10T01:04:08.458Z,9.66
2022-11-10T01:07:11.421Z,9.65
2022-11-10T01:10:13.097Z,9.65
2022-11-10T01:13:14.665Z,9.65
2022-11-10T01:16:17.925Z,9.62
2022-11-10T01:19:19.777Z,9.62
2022-11-10T01:22:22.882Z,9.63
2022-11-10T01:25:24.433Z,9.62
2022-11-10T01:28:26.040Z,9.61
2022-11-10T01:31:29.683Z,9.58
2022-11-10T01:34:31.311Z,9.59
2022-11-10T01:37:34.473Z,9.56
2022-11-10T01:40:36.411Z,9.55
2022-11-10T01:43:38.479Z,9.54
2022-11-10T01:46:40.175Z,9.51
2022-11-10T01:49:43.677Z,9.47
2022-11-10T01:52:47.644Z,9.44
2022-11-10T01:55:49.967Z,9.41
2022-11-10T01:58:54.914Z,9.41
2022-11-10T02:01:59.298Z,9.40
2022-11-10T02:05:01.697Z,9.38
2022-11-10T02:08:05.669Z,9.36
2022-11-10T02:11:07.197Z,9.39
2022-11-10T02:14:09.151Z,9.39
2022-11-10T02:17:11.254Z,9.36
2022-11-10T02:20:14.389Z,9.38
2022-11-10T02:23:30.767Z,9.37
2022-11-10T02:26:35.091Z,9.39
2022-11-10T02:29:36.562Z,9.39
2022-11-10T02:32:38.115Z,9.41
2022-11-10T02:35:39.748Z,9.41
2022-11-10T02:38:41.645Z,9.41
2022-11-10T02:41:44.603Z,9.41
2022-11-10T02:44:46.254Z,9.37
2022-11-10T02:47:47.864Z,9.36
2022-11-10T02:50:55.328Z,9.34
2022-11-10T02:53:56.984Z,9.34
2022-11-10T02:57:02.795Z,9.33
2022-11-10T03:00:05.022Z,9.30
2022-11-10T03:03:06.857Z,9.29
2022-11-10T03:06:08.533Z,9.30
2022-11-10T03:09:10.218Z,9.28
2022-11-10T03:12:13.124Z,9.29
2022-11-10T03:15:15.053Z,9.31
2022-11-10T03:18:16.709Z,9.34
2022-11-10T03:21:18.656Z,9.37
2022-11-10T03:24:20.988Z,9.37
2022-11-10T03:27:24.246Z,9.40
2022-11-10T03:30:26.195Z,9.41
2022-11-10T03:33:27.865Z,9.42
2022-11-10T03:36:29.484Z,9.43
2022-11-10T03:39:31.293Z,9.44
2022-11-10T03:42:34.387Z,9.45
2022-11-10T03:45:35.814Z,9.45
2022-11-10T03:48:37.454Z,9.44
2022-11-10T03:51:38.977Z,9.46
2022-11-10T03:54:40.490Z,9.44
2022-11-10T03:57:43.641Z,9.47
2022-11-10T04:00:45.242Z,9.47
2022-11-10T04:03:51.338Z,9.48
2022-11-10T04:07:11.709Z,9.47
2022-11-10T04:10:13.515Z,9.49
2022-11-10T04:13:37.999Z,9.49
2022-11-10T04:16:39.709Z,9.53
2022-11-10T04:19:41.459Z,9.52
2022-11-10T04:23:01.523Z,9.53
2022-11-10T04:26:22.950Z,9.53
2022-11-10T04:29:26.147Z,9.53
2022-11-10T04:32:27.611Z,9.54
2022-11-10T04:35:29.243Z,9.53
2022-11-10T04:38:30.914Z,9.53
2022-11-10T04:41:33.041Z,9.53
2022-11-10T04:44:36.134Z,9.54
2022-11-10T04:47:37.675Z,9.54
2022-11-10T04:50:39.170Z,9.53
2022-11-10T04:53:40.848Z,9.51
2022-11-10T04:56:43.136Z,9.53
2022-11-10T04:59:46.016Z,9.53
2022-11-10T05:02:48.238Z,9.53
2022-11-10T05:05:50.398Z,9.54
2022-11-10T05:08:52.003Z,9.53
2022-11-10T05:11:53.675Z,9.53
2022-11-10T05:14:56.897Z,9.54
2022-11-10T05:17:58.447Z,9.53
2022-11-10T05:21:00.133Z,9.54
2022-11-10T05:24:02.120Z,9.55
2022-11-10T05:27:03.836Z,9.53
2022-11-10T05:30:08.132Z,9.51
2022-11-10T05:33:10.240Z,9.50
2022-11-10T05:36:11.912Z,9.51
2022-11-10T05:39:13.895Z,9.51
2022-11-10T05:42:15.480Z,9.50
2022-11-10T05:45:18.770Z,9.52
2022-11-10T05:48:20.492Z,9.52
2022-11-10T05:51:22.128Z,9.51
2022-11-10T05:54:23.604Z,9.49
2022-11-10T05:57:25.491Z,9.50
2022-11-10T06:00:29.339Z,9.50
2022-11-10T06:03:31.493Z,9.52
2022-11-10T06:06:33.199Z,9.53
2022-11-10T06:09:35.078Z,9.53
2022-11-10T06:12:36.627Z,9.54
2022-11-10T06:15:40.335Z,9.54
2022-11-10T06:18:42.048Z,9.56
2022-11-10T06:21:43.652Z,9.56
2022-11-10T06:24:45.511Z,9.58
2022-11-10T06:27:46.954Z,9.61
2022-11-10T06:30:49.995Z,9.62
2022-11-10T06:33:51.556Z,9.61
2022-11-10T06:36:53.374Z,9.62
2022-11-10T06:39:57.586Z,9.63
2022-11-10T06:42:59.571Z,9.61
2022-11-10T06:46:03.171Z,9.62
2022-11-10T06:49:04.907Z,9.61
2022-11-10T06:52:06.567Z,9.62
2022-11-10T06:55:08.627Z,9.61
2022-11-10T06:58:10.642Z,9.60
2022-11-10T07:01:18.782Z,9.59
2022-11-10T07:04:24.566Z,9.59
2022-11-10T07:07:26.105Z,9.60
2022-11-10T07:10:27.652Z,9.61
2022-11-10T07:13:29.535Z,9.63
2022-11-10T07:16:32.536Z,9.64
2022-11-10T07:19:34.185Z,9.65
2022-11-10T07:22:35.672Z,9.66
2022-11-10T07:25:38.067Z,9.67
2022-11-10T07:28:39.739Z,9.67
2022-11-10T07:31:42.974Z,9.69
2022-11-10T07:34:44.835Z,9.71
2022-11-10T07:37:46.441Z,9.73
2022-11-10T07:40:50.755Z,9.75
2022-11-10T07:43:52.436Z,9.79
2022-11-10T07:46:55.433Z,9.80
2022-11-10T07:49:59.623Z,9.81
2022-11-10T07:53:04.876Z,9.81
2022-11-10T07:56:07.456Z,9.82
2022-11-10T07:59:09.530Z,9.83
2022-11-10T08:02:13.554Z,9.86
2022-11-10T08:05:15.214Z,9.86
2022-11-10T08:08:16.985Z,9.86
2022-11-10T08:11:18.623Z,9.87
2022-11-10T08:14:20.243Z,9.88
2022-11-10T08:17:23.168Z,9.89
2022-11-10T08:20:24.779Z,9.87
2022-11-10T08:23:26.525Z,9.89
2022-11-10T08:26:28.104Z,9.93
2022-11-10T08:29:29.774Z,9.95
2022-11-10T08:32:32.894Z,9.97
2022-11-10T08:35:35.501Z,10.00
2022-11-10T08:38:37.049Z,10.02
2022-11-10T08:41:38.550Z,10.04
2022-11-10T08:44:40.150Z,10.06
2022-11-10T08:47:44.837Z,10.07
2022-11-10T08:50:46.791Z,10.08
2022-11-10T08:53:48.453Z,10.09
2022-11-10T08:56:50.115Z,10.10
2022-11-10T08:59:51.706Z,10.17
2022-11-10T09:02:54.971Z,10.17
2022-11-10T09:05:58.738Z,10.17
2022-11-10T09:09:00.639Z,10.19
2022-11-10T09:12:03.337Z,10.24
2022-11-10T09:15:05.417Z,10.26
2022-11-10T09:18:09.294Z,10.30
2022-11-10T09:21:12.033Z,10.34
2022-11-10T09:24:13.629Z,10.40
2022-11-10T09:27:15.136Z,10.33
2022-11-10T09:30:18.210Z,10.42
2022-11-10T09:33:21.964Z,10.41
2022-11-10T09:36:23.846Z,10.49
2022-11-10T09:39:25.687Z,10.57
2022-11-10T09:42:30.079Z,10.70
2022-11-10T09:45:37.919Z,10.70
2022-11-10T09:48:45.498Z,10.71
2022-11-10T09:51:48.531Z,11.15
2022-11-10T09:54:53.912Z,11.13
2022-11-10T09:57:57.058Z,11.05
2022-11-10T10:01:03.885Z,11.24
2022-11-10T10:04:16.714Z,11.22
2022-11-10T10:07:21.338Z,11.11
2022-11-10T10:10:26.988Z,11.04
2022-11-10T10:13:38.347Z,11.18
2022-11-10T10:16:45.230Z,11.13
2022-11-10T10:19:51.727Z,11.23
2022-11-10T10:23:01.151Z,11.37
2022-11-10T10:26:03.161Z,11.35
2022-11-10T10:29:08.064Z,11.45
2022-11-10T10:32:11.462Z,11.35
2022-11-10T10:35:15.684Z,11.41
2022-11-10T10:38:22.406Z,11.46
2022-11-10T10:41:25.542Z,11.30
2022-11-10T10:44:27.773Z,11.58
2022-11-10T10:47:36.746Z,11.58
2022-11-10T10:50:42.882Z,11.59
2022-11-10T10:53:47.999Z,11.56
2022-11-10T10:56:49.591Z,11.59
2022-11-10T10:59:51.414Z,11.65
2022-11-10T11:03:04.599Z,11.76
2022-11-10T11:06:20.539Z,11.86
2022-11-10T11:09:26.277Z,11.96
2022-11-10T11:12:28.978Z,11.99
2022-11-10T11:15:30.515Z,12.02
2022-11-10T11:18:32.451Z,11.86
2022-11-10T11:21:37.630Z,12.07
2022-11-10T11:24:43.344Z,12.00
2022-11-10T11:27:49.406Z,11.95
2022-11-10T11:30:59.452Z,12.07
2022-11-10T11:34:02.424Z,11.98
2022-11-10T11:37:18.009Z,12.06
2022-11-10T11:40:37.948Z,11.90
2022-11-10T11:43:55.733Z,11.80
2022-11-10T11:47:02.519Z,11.86
2022-11-10T11:50:12.370Z,11.92
2022-11-10T11:53:23.441Z,12.01
2022-11-10T11:56:26.225Z,12.11
2022-11-10T11:59:35.853Z,12.31
2022-11-10T12:02:47.527Z,12.37
2022-11-10T12:05:56.885Z,12.62
2022-11-10T12:09:01.292Z,12.57
2022-11-10T12:12:10.383Z,12.39
2022-11-10T12:15:18.785Z,12.23
2022-11-10T12:18:28.495Z,12.29
2022-11-10T12:21:33.082Z,12.33
2022-11-10T12:24:47.084Z,12.27
2022-11-10T12:27:51.241Z,12.24
2022-11-10T12:31:01.477Z,12.18
2022-11-10T12:34:07.084Z,12.13
2022-11-10T12:37:12.915Z,12.15
2022-11-10T12:40:17.001Z,12.17
2022-11-10T12:43:23.731Z,12.28
2022-11-10T12:46:25.564Z,12.37
2022-11-10T12:49:30.241Z,12.54
2022-11-10T12:52:33.960Z,12.57
2022-11-10T12:55:42.268Z,12.59
2022-11-10T12:58:44.005Z,12.52
2022-11-10T13:01:46.662Z,12.50
2022-11-10T13:05:03.061Z,12.41
2022-11-10T13:08:07.634Z,12.35
2022-11-10T13:11:21.100Z,12.34
2022-11-10T13:14:24.648Z,12.25
2022-11-10T13:17:52.488Z,12.15
2022-11-10T13:20:54.724Z,12.13
2022-11-10T13:24:17.640Z,12.11
2022-11-10T13:27:33.996Z,12.07
2022-11-10T13:30:41.605Z,12.05
2022-11-10T13:34:03.470Z,12.03
2022-11-10T13:37:19.851Z,12.01
2022-11-10T13:40:27.151Z,12.00
2022-11-10T13:43:28.718Z,11.97
2022-11-10T13:46:34.953Z,11.97
2022-11-10T13:49:45.578Z,12.01
2022-11-10T13:52:56.649Z,11.99
2022-11-10T13:56:07.499Z,11.97
2022-11-10T13:59:16.991Z,12.02
2022-11-10T14:02:38.955Z,12.15
2022-11-10T14:06:01.546Z,12.26
2022-11-10T14:09:05.934Z,12.24
2022-11-10T14:12:15.216Z,12.21
2022-11-10T14:15:17.952Z,12.17
2022-11-10T14:18:22.071Z,12.15
2022-11-10T14:21:27.614Z,12.19
2022-11-10T14:24:33.715Z,12.24
2022-11-10T14:27:35.673Z,12.26
2022-11-10T14:30:37.159Z,12.31
2022-11-10T14:33:38.779Z,12.32
2022-11-10T14:36:40.517Z,12.33
2022-11-10T14:39:43.740Z,12.33
2022-11-10T14:42:46.540Z,12.27
2022-11-10T14:45:50.444Z,12.23
2022-11-10T14:48:55.603Z,12.17
2022-11-10T14:51:59.328Z,12.14
2022-11-10T14:55:06.081Z,12.13
2022-11-10T14:58:11.453Z,12.14
2022-11-10T15:01:22.778Z,12.10
2022-11-10T15:04:27.499Z,12.00
2022-11-10T15:07:29.025Z,11.97
2022-11-10T15:10:44.140Z,11.92
2022-11-10T15:13:46.045Z,11.80
2022-11-10T15:16:59.753Z,11.76
2022-11-10T15:20:01.295Z,11.71
2022-11-10T15:23:04.668Z,11.73
2022-11-10T15:26:17.973Z,11.66
2022-11-10T15:29:21.983Z,11.67
2022-11-10T15:32:28.371Z,11.59
2022-11-10T15:35:31.306Z,11.50
2022-11-10T15:38:33.085Z,11.43
2022-11-10T15:41:36.535Z,11.42
2022-11-10T15:44:38.111Z,11.35
2022-11-10T15:47:41.172Z,11.26
2022-11-10T15:50:43.449Z,11.21
2022-11-10T15:53:46.281Z,11.19
2022-11-10T15:56:49.313Z,11.22
2022-11-10T15:59:50.859Z,11.24
2022-11-10T16:02:52.509Z,11.11
2022-11-10T16:05:54.141Z,11.10
2022-11-10T16:08:55.757Z,11.01
2022-11-10T16:11:58.781Z,10.97
2022-11-10T16:15:00.400Z,10.93
2022-11-10T16:18:02.413Z,10.91
2022-11-10T16:21:04.118Z,10.92
2022-11-10T16:24:08.118Z,10.92
2022-11-10T16:27:13.298Z,10.93
2022-11-10T16:30:15.665Z,10.85
2022-11-10T16:33:19.139Z,10.84
2022-11-10T16:36:23.574Z,10.83
2022-11-10T16:39:25.345Z,10.82
2022-11-10T16:42:28.448Z,10.79
2022-11-10T16:45:30.393Z,10.74
2022-11-10T16:48:33.026Z,10.73
2022-11-10T16:51:37.559Z,10.70
2022-11-10T16:54:39.322Z,10.63
2022-11-10T16:57:42.199Z,10.61
2022-11-10T17:00:44.229Z,10.57
2022-11-10T17:03:47.104Z,10.53
2022-11-10T17:06:49.727Z,10.52
2022-11-10T17:09:51.694Z,10.51
2022-11-10T17:12:54.793Z,10.55
2022-11-10T17:16:01.997Z,10.53
2022-11-10T17:19:05.573Z,10.52
2022-11-10T17:22:09.796Z,10.45
2022-11-10T17:25:15.719Z,10.38
2022-11-10T17:28:19.288Z,10.38
2022-11-10T17:31:20.833Z,10.37
2022-11-10T17:34:22.497Z,10.40
2022-11-10T17:37:24.075Z,10.37
2022-11-10T17:40:26.812Z,10.33
2022-11-10T17:43:30.579Z,10.32
2022-11-10T17:46:32.103Z,10.30
2022-11-10T17:49:33.688Z,10.23
2022-11-10T17:52:35.193Z,10.21
2022-11-10T17:55:37.193Z,10.19
2022-11-10T17:58:40.575Z,10.20
2022-11-10T18:01:42.245Z,10.18
2022-11-10T18:04:44.131Z,10.13
2022-11-10T18:07:49.140Z,10.10
2022-11-10T18:10:51.783Z,10.07
2022-11-10T18:13:54.800Z,10.11
2022-11-10T18:16:56.449Z,10.06
2022-11-10T18:19:58.270Z,10.10
2022-11-10T18:22:59.794Z,10.08
2022-11-10T18:26:05.197Z,10.07
2022-11-10T18:29:08.763Z,10.02
2022-11-10T18:32:10.404Z,9.96
2022-11-10T18:35:11.920Z,9.96
2022-11-10T18:38:13.717Z,9.97
2022-11-10T18:41:33.828Z,9.94
2022-11-10T18:44:37.150Z,9.94
2022-11-10T18:47:39.310Z,9.86
2022-11-10T18:50:40.798Z,9.84
2022-11-10T18:53:42.380Z,9.82
2022-11-10T18:56:43.975Z,9.80
2022-11-10T18:59:47.013Z,9.73
2022-11-10T19:02:48.838Z,9.71
2022-11-10T19:05:58.319Z,9.66
2022-11-10T19:09:00.274Z,9.67
2022-11-10T19:12:01.771Z,9.64
2022-11-10T19:15:05.556Z,9.62
2022-11-10T19:18:07.122Z,9.58
2022-11-10T19:21:10.461Z,9.51
2022-11-10T19:24:12.500Z,9.52
2022-11-10T19:27:19.856Z,9.48
2022-11-10T19:30:22.791Z,9.44
2022-11-10T19:33:24.693Z,9.40
2022-11-10T19:36:27.643Z,9.43
2022-11-10T19:39:31.112Z,9.46
2022-11-10T19:42:33.145Z,9.47
2022-11-10T19:45:36.581Z,9.41
2022-11-10T19:48:38.175Z,9.39
2022-11-10T19:51:39.827Z,9.38
2022-11-10T19:54:41.812Z,9.37
2022-11-10T19:57:44.039Z,9.38
2022-11-10T20:00:47.520Z,9.30
2022-11-10T20:03:49.673Z,9.26
2022-11-10T20:07:11.580Z,9.30
2022-11-10T20:10:13.070Z,9.31
2022-11-10T20:13:14.670Z,9.27
2022-11-10T20:16:17.688Z,9.22
2022-11-10T20:19:19.617Z,9.17
2022-11-10T20:22:21.649Z,9.19
2022-11-10T20:25:23.285Z,9.17
2022-11-10T20:28:25.051Z,9.18
2022-11-10T20:31:28.095Z,9.22
2022-11-10T20:34:29.698Z,9.24
2022-11-10T20:37:31.837Z,9.19
2022-11-10T20:40:48.651Z,9.14
2022-11-10T20:43:50.344Z,9.10
2022-11-10T20:46:55.747Z,9.09
2022-11-10T20:49:57.530Z,9.05
2022-11-10T20:52:59.153Z,9.05
2022-11-10T20:56:02.162Z,9.03
2022-11-10T20:59:03.899Z,9.09
2022-11-10T21:02:07.013Z,9.06
2022-11-10T21:05:09.145Z,9.04
2022-11-10T21:08:10.760Z,9.07
2022-11-10T21:11:32.625Z,9.02
2022-11-10T21:14:34.304Z,8.92
2022-11-10T21:17:41.506Z,8.92
2022-11-10T21:20:45.529Z,8.88
2022-11-10T21:23:47.038Z,8.88
2022-11-10T21:26:49.187Z,8.88
2022-11-10T21:29:50.760Z,8.94
2022-11-10T21:32:53.899Z,8.91
2022-11-10T21:35:55.472Z,8.89
2022-11-10T21:38:57.088Z,8.86
2022-11-10T21:41:58.589Z,8.88
2022-11-10T21:45:00.383Z,8.85
2022-11-10T21:48:03.786Z,8.80
2022-11-10T21:51:06.367Z,8.75
2022-11-10T21:54:09.282Z,8.75
2022-11-10T21:57:10.867Z,8.73
2022-11-10T22:00:13.609Z,8.65
2022-11-10T22:03:16.585Z,8.67
2022-11-10T22:06:18.627Z,8.65
2022-11-10T22:09:40.294Z,8.63
2022-11-10T22:13:00.831Z,8.68
2022-11-10T22:16:21.845Z,8.76
2022-11-10T22:19:24.960Z,8.97
2022-11-10T22:22:26.570Z,9.08
2022-11-10T22:25:28.093Z,9.06
2022-11-10T22:28:29.613Z,9.21
2022-11-10T22:31:33.147Z,9.18
2022-11-10T22:34:36.155Z,9.30
2022-11-10T22:37:37.677Z,9.39
2022-11-10T22:40:58.027Z,9.24
2022-11-10T22:44:06.721Z,9.33
2022-11-10T22:47:08.312Z,9.37
2022-11-10T22:50:11.405Z,9.44
2022-11-10T22:53:12.885Z,9.47
2022-11-10T22:56:14.535Z,9.48
2022-11-10T22:59:19.410Z,9.49
2022-11-10T23:02:21.091Z,9.53
2022-11-10T23:05:23.920Z,9.56
2022-11-10T23:08:25.824Z,9.57
2022-11-10T23:11:28.242Z,9.49
2022-11-10T23:14:29.881Z,9.38
2022-11-10T23:17:31.488Z,9.34
2022-11-10T23:20:34.691Z,9.20
2022-11-10T23:23:36.846Z,9.29
2022-11-10T23:26:40.624Z,9.38
2022-11-10T23:29:42.147Z,9.39
2022-11-10T23:32:43.967Z,9.35
2022-11-10T23:35:46.955Z,9.37
2022-11-10T23:38:48.883Z,9.37
2022-11-10T23:41:50.557Z,9.16
2022-11-10T23:44:52.154Z,9.10
2022-11-10T23:47:53.772Z,9.13
2022-11-10T23:50:56.640Z,9.37
2022-11-10T23:53:58.422Z,9.37
2022-11-10T23:57:00.075Z,9.31
